Aviation Digital Data Service (ADDS)

Output produced by METARs form (0426 UTC 11 February 2016)
found at http://aviationweather.gov/adds/metars/
 
KLFT 110353Z 20007KT 10SM CLR 08/02 A3025 RMK AO2 SLP242 T00780017